Airfield :
LOGIN :

Register | Disclaimer

   EN    FR    IT 

 










Legend :    VFR   Marginal VFR   IFR   Intensive IFR   Very Intensive IFR
Visi :
Ceiling :
>= 8 km
>= 3000ft
5 to 8 km
1000 to 3000 ft
1500m to 5 km
500 to 1000 ft
800 to 1500m
200 to 500 ft
< 800m
< 200 ft
Symbols :   Thunderstorms  Fog  Heavy snow  Heavy precipitations  Wind > 20 kt
SIGMETs :     Misc.  Thunderstorms  Icing  Turbulence  Mountain Waves  Volcanic Ashes






- Airport Elevation : 170 ft
- IATA code : KRP


EKKA - Karup

CURRENT METAR :
  • 202350Z AUTO 08010KT 6000 OVC006/// 08/07 Q1014

EXPIRED METARs :
  • 202320Z AUTO 06009KT 3900 -RA BR OVC005/// 08/07 Q1014
  • 202250Z AUTO 05007KT 2800 -SHRA BR OVC003/// 07/06 Q1014
  • 202248Z AUTO 05007KT 2900 -SHRA BR OVC003/// 07/06 Q1014
  • 202236Z AUTO 03007KT 4600 -SHRA BR OVC003/// 07/06 Q1014
  • 202220Z AUTO 02007KT 4500 -SHRA BR OVC002/// 07/06 Q1014
  • 202206Z AUTO 02007KT 4900 -SHRA OVC002/// 07/05 Q1015
  • 202150Z AUTO 01007KT 5000 OVC002/// 06/05 Q1015

TAF TAF EKKA
Valid from the 21 at 00:00 until the 22 at 00:00 UTC


202253Z 2100/2124 03005KT 6000 -RADZ SCT008 BKN015
TEMPO 2100/2102 1200 BR BKN002
BECMG 2100/2102 15010KT
TEMPO 2102/2110 2500 BR BKN004
BECMG 2110/2112 8000 NSW
BECMG 2114/2116 08005KT 7000 -RA BKN012
BECMG 2116/2118 2500 -RADZ BR BKN004
TEMPO 2118/2124 1200 BKN002



MET'MAP, your aeronautical weather chart ! - Copyright ORBIFLY December 2007 - Disclaimer

ORBIFLY MET'MAP TEAM :

Programming & Development : Alexandra Zaïnal
Concept & Development : Baudouin d'Aumeries
Co-Development & Prog : Marc-Olivier Méhu
Technical & hardware support : Manuel Goepfert

Contact : metmap@orbifly.com




SOURCES & CREDITS :

   NOAA